sensor_id;sensor_type;location;lat;lon;timestamp;P1;durP1;ratioP1;P2;durP2;ratioP2
80541;SDS011;69870;51.460;8.842;2024-01-16T00:00:16;19.38;;;7.57;;
80541;SDS011;69870;51.460;8.842;2024-01-16T00:02:43;10.80;;;7.30;;
80541;SDS011;69870;51.460;8.842;2024-01-16T00:05:10;15.00;;;7.20;;
80541;SDS011;69870;51.460;8.842;2024-01-16T00:07:38;12.93;;;6.78;;
80541;SDS011;69870;51.460;8.842;2024-01-16T00:10:07;17.60;;;7.65;;
80541;SDS011;69870;51.460;8.842;2024-01-16T00:12:34;19.75;;;8.73;;
80541;SDS011;69870;51.460;8.842;2024-01-16T00:15:00;16.08;;;7.45;;
80541;SDS011;69870;51.460;8.842;2024-01-16T00:17:28;20.10;;;7.00;;
80541;SDS011;69870;51.460;8.842;2024-01-16T00:19:55;22.98;;;6.97;;
80541;SDS011;69870;51.460;8.842;2024-01-16T00:22:25;21.55;;;7.60;;
80541;SDS011;69870;51.460;8.842;2024-01-16T00:24:52;21.77;;;6.88;;
80541;SDS011;69870;51.460;8.842;2024-01-16T00:27:18;20.88;;;7.18;;
80541;SDS011;69870;51.460;8.842;2024-01-16T00:29:45;20.52;;;7.07;;
80541;SDS011;69870;51.460;8.842;2024-01-16T00:32:11;19.40;;;6.63;;
80541;SDS011;69870;51.460;8.842;2024-01-16T00:34:42;16.90;;;6.85;;
80541;SDS011;69870;51.460;8.842;2024-01-16T00:37:09;14.80;;;6.15;;
80541;SDS011;69870;51.460;8.842;2024-01-16T00:39:35;21.67;;;7.93;;
80541;SDS011;69870;51.460;8.842;2024-01-16T00:42:02;19.38;;;6.60;;
80541;SDS011;69870;51.460;8.842;2024-01-16T00:44:31;16.70;;;6.93;;
80541;SDS011;69870;51.460;8.842;2024-01-16T00:46:57;26.60;;;8.63;;
80541;SDS011;69870;51.460;8.842;2024-01-16T00:49:26;22.83;;;7.50;;
80541;SDS011;69870;51.460;8.842;2024-01-16T00:51:54;27.40;;;6.75;;
80541;SDS011;69870;51.460;8.842;2024-01-16T00:54:21;17.80;;;6.47;;
80541;SDS011;69870;51.460;8.842;2024-01-16T00:56:47;20.92;;;7.15;;
80541;SDS011;69870;51.460;8.842;2024-01-16T00:59:14;16.10;;;6.38;;
80541;SDS011;69870;51.460;8.842;2024-01-16T01:01:40;28.35;;;6.75;;
80541;SDS011;69870;51.460;8.842;2024-01-16T01:04:07;21.38;;;6.07;;
80541;SDS011;69870;51.460;8.842;2024-01-16T01:06:35;23.15;;;6.35;;
80541;SDS011;69870;51.460;8.842;2024-01-16T01:09:03;22.40;;;6.18;;
80541;SDS011;69870;51.460;8.842;2024-01-16T01:11:29;26.92;;;6.55;;
80541;SDS011;69870;51.460;8.842;2024-01-16T01:13:56;20.10;;;6.75;;
80541;SDS011;69870;51.460;8.842;2024-01-16T01:16:22;21.55;;;6.80;;
80541;SDS011;69870;51.460;8.842;2024-01-16T01:18:49;16.17;;;6.35;;
80541;SDS011;69870;51.460;8.842;2024-01-16T01:21:15;19.98;;;6.88;;
80541;SDS011;69870;51.460;8.842;2024-01-16T01:23:43;19.63;;;6.35;;
80541;SDS011;69870;51.460;8.842;2024-01-16T01:26:11;21.30;;;7.65;;
80541;SDS011;69870;51.460;8.842;2024-01-16T01:28:38;24.17;;;6.82;;
80541;SDS011;69870;51.460;8.842;2024-01-16T01:31:05;19.33;;;7.72;;
80541;SDS011;69870;51.460;8.842;2024-01-16T01:33:34;32.30;;;6.40;;
80541;SDS011;69870;51.460;8.842;2024-01-16T01:36:01;13.38;;;6.47;;
80541;SDS011;69870;51.460;8.842;2024-01-16T01:38:27;26.90;;;6.32;;
80541;SDS011;69870;51.460;8.842;2024-01-16T01:40:54;18.23;;;5.50;;
80541;SDS011;69870;51.460;8.842;2024-01-16T01:43:22;19.35;;;6.80;;
80541;SDS011;69870;51.460;8.842;2024-01-16T01:45:55;16.52;;;6.60;;
80541;SDS011;69870;51.460;8.842;2024-01-16T01:48:32;18.92;;;6.97;;
80541;SDS011;69870;51.460;8.842;2024-01-16T01:50:59;20.83;;;7.22;;
80541;SDS011;69870;51.460;8.842;2024-01-16T01:53:28;24.55;;;7.65;;
80541;SDS011;69870;51.460;8.842;2024-01-16T01:55:57;20.27;;;6.85;;
80541;SDS011;69870;51.460;8.842;2024-01-16T01:58:26;20.33;;;7.88;;
80541;SDS011;69870;51.460;8.842;2024-01-16T02:00:53;19.60;;;7.10;;
80541;SDS011;69870;51.460;8.842;2024-01-16T02:03:20;20.92;;;7.22;;
80541;SDS011;69870;51.460;8.842;2024-01-16T02:05:49;28.77;;;7.38;;
80541;SDS011;69870;51.460;8.842;2024-01-16T02:08:16;18.40;;;7.10;;
80541;SDS011;69870;51.460;8.842;2024-01-16T02:10:43;21.55;;;8.32;;
80541;SDS011;69870;51.460;8.842;2024-01-16T02:13:13;18.40;;;7.30;;
80541;SDS011;69870;51.460;8.842;2024-01-16T02:15:41;24.30;;;8.68;;
80541;SDS011;69870;51.460;8.842;2024-01-16T02:18:07;28.25;;;8.35;;
80541;SDS011;69870;51.460;8.842;2024-01-16T02:20:34;26.65;;;7.45;;
80541;SDS011;69870;51.460;8.842;2024-01-16T02:23:01;28.77;;;6.88;;
80541;SDS011;69870;51.460;8.842;2024-01-16T02:25:31;20.58;;;7.00;;
80541;SDS011;69870;51.460;8.842;2024-01-16T02:27:59;25.88;;;6.35;;
80541;SDS011;69870;51.460;8.842;2024-01-16T02:30:26;22.50;;;6.85;;
80541;SDS011;69870;51.460;8.842;2024-01-16T02:32:53;15.00;;;6.85;;
80541;SDS011;69870;51.460;8.842;2024-01-16T02:35:19;32.63;;;7.18;;
80541;SDS011;69870;51.460;8.842;2024-01-16T02:37:46;15.52;;;6.75;;
80541;SDS011;69870;51.460;8.842;2024-01-16T02:40:12;18.60;;;7.78;;
80541;SDS011;69870;51.460;8.842;2024-01-16T02:42:40;24.00;;;6.93;;
80541;SDS011;69870;51.460;8.842;2024-01-16T02:45:07;24.40;;;7.03;;
80541;SDS011;69870;51.460;8.842;2024-01-16T02:47:34;17.25;;;6.55;;
80541;SDS011;69870;51.460;8.842;2024-01-16T02:50:02;22.98;;;7.47;;
80541;SDS011;69870;51.460;8.842;2024-01-16T02:52:30;29.40;;;7.03;;
80541;SDS011;69870;51.460;8.842;2024-01-16T02:54:56;18.27;;;7.18;;
80541;SDS011;69870;51.460;8.842;2024-01-16T02:57:23;28.30;;;7.25;;
80541;SDS011;69870;51.460;8.842;2024-01-16T02:59:51;29.60;;;7.68;;
80541;SDS011;69870;51.460;8.842;2024-01-16T03:02:17;26.10;;;6.38;;
80541;SDS011;69870;51.460;8.842;2024-01-16T03:04:44;28.55;;;7.22;;
80541;SDS011;69870;51.460;8.842;2024-01-16T03:07:10;23.40;;;7.35;;
80541;SDS011;69870;51.460;8.842;2024-01-16T03:09:37;23.08;;;8.23;;
80541;SDS011;69870;51.460;8.842;2024-01-16T03:12:04;22.75;;;7.63;;
80541;SDS011;69870;51.460;8.842;2024-01-16T03:14:32;34.65;;;8.25;;
80541;SDS011;69870;51.460;8.842;2024-01-16T03:17:01;21.58;;;6.65;;
80541;SDS011;69870;51.460;8.842;2024-01-16T03:19:28;23.92;;;6.20;;
80541;SDS011;69870;51.460;8.842;2024-01-16T03:21:55;23.02;;;6.90;;
80541;SDS011;69870;51.460;8.842;2024-01-16T03:24:21;18.27;;;5.75;;
80541;SDS011;69870;51.460;8.842;2024-01-16T03:26:48;23.25;;;7.25;;
80541;SDS011;69870;51.460;8.842;2024-01-16T03:29:14;17.95;;;5.80;;
80541;SDS011;69870;51.460;8.842;2024-01-16T03:31:41;13.27;;;6.53;;
80541;SDS011;69870;51.460;8.842;2024-01-16T03:34:09;19.05;;;6.18;;
80541;SDS011;69870;51.460;8.842;2024-01-16T03:36:35;23.85;;;6.78;;
80541;SDS011;69870;51.460;8.842;2024-01-16T03:39:02;17.80;;;5.80;;
80541;SDS011;69870;51.460;8.842;2024-01-16T03:41:29;18.90;;;6.60;;
80541;SDS011;69870;51.460;8.842;2024-01-16T03:43:55;28.90;;;6.55;;
80541;SDS011;69870;51.460;8.842;2024-01-16T03:46:22;20.58;;;6.28;;
80541;SDS011;69870;51.460;8.842;2024-01-16T03:48:49;18.02;;;6.00;;
80541;SDS011;69870;51.460;8.842;2024-01-16T03:51:17;20.95;;;5.60;;
80541;SDS011;69870;51.460;8.842;2024-01-16T03:53:44;24.17;;;6.25;;
80541;SDS011;69870;51.460;8.842;2024-01-16T03:56:11;22.95;;;6.13;;
80541;SDS011;69870;51.460;8.842;2024-01-16T03:58:39;13.30;;;5.80;;
80541;SDS011;69870;51.460;8.842;2024-01-16T04:01:06;13.50;;;5.30;;
80541;SDS011;69870;51.460;8.842;2024-01-16T04:03:33;31.48;;;7.20;;
80541;SDS011;69870;51.460;8.842;2024-01-16T04:06:00;26.13;;;6.43;;
80541;SDS011;69870;51.460;8.842;2024-01-16T04:08:28;17.35;;;5.35;;
80541;SDS011;69870;51.460;8.842;2024-01-16T04:10:54;26.05;;;6.40;;
80541;SDS011;69870;51.460;8.842;2024-01-16T04:13:21;23.10;;;5.45;;
80541;SDS011;69870;51.460;8.842;2024-01-16T04:15:47;23.85;;;6.28;;
80541;SDS011;69870;51.460;8.842;2024-01-16T04:18:14;27.58;;;6.25;;
80541;SDS011;69870;51.460;8.842;2024-01-16T04:20:41;31.15;;;8.15;;
80541;SDS011;69870;51.460;8.842;2024-01-16T04:23:07;18.88;;;7.35;;
80541;SDS011;69870;51.460;8.842;2024-01-16T04:25:35;22.50;;;7.13;;
80541;SDS011;69870;51.460;8.842;2024-01-16T04:28:02;28.52;;;8.88;;
80541;SDS011;69870;51.460;8.842;2024-01-16T04:30:29;22.08;;;7.57;;
80541;SDS011;69870;51.460;8.842;2024-01-16T04:32:55;19.02;;;6.95;;
80541;SDS011;69870;51.460;8.842;2024-01-16T04:35:22;24.60;;;7.25;;
80541;SDS011;69870;51.460;8.842;2024-01-16T04:37:48;25.38;;;7.97;;
80541;SDS011;69870;51.460;8.842;2024-01-16T04:40:16;28.27;;;7.65;;
80541;SDS011;69870;51.460;8.842;2024-01-16T04:42:43;22.50;;;7.60;;
80541;SDS011;69870;51.460;8.842;2024-01-16T04:45:10;20.48;;;7.93;;
80541;SDS011;69870;51.460;8.842;2024-01-16T04:47:37;19.40;;;6.50;;
80541;SDS011;69870;51.460;8.842;2024-01-16T04:50:03;37.63;;;8.63;;
80541;SDS011;69870;51.460;8.842;2024-01-16T04:52:30;13.82;;;6.63;;
80541;SDS011;69870;51.460;8.842;2024-01-16T04:54:57;20.42;;;7.30;;
80541;SDS011;69870;51.460;8.842;2024-01-16T04:57:23;19.58;;;6.95;;
80541;SDS011;69870;51.460;8.842;2024-01-16T04:59:51;22.50;;;8.18;;
80541;SDS011;69870;51.460;8.842;2024-01-16T05:02:18;25.05;;;6.40;;
80541;SDS011;69870;51.460;8.842;2024-01-16T05:04:44;18.45;;;7.40;;
80541;SDS011;69870;51.460;8.842;2024-01-16T05:07:14;16.88;;;7.35;;
80541;SDS011;69870;51.460;8.842;2024-01-16T05:09:41;23.83;;;7.75;;
80541;SDS011;69870;51.460;8.842;2024-01-16T05:12:07;21.67;;;7.88;;
80541;SDS011;69870;51.460;8.842;2024-01-16T05:14:34;17.60;;;7.65;;
80541;SDS011;69870;51.460;8.842;2024-01-16T05:17:02;24.80;;;8.30;;
80541;SDS011;69870;51.460;8.842;2024-01-16T05:19:29;26.35;;;7.50;;
80541;SDS011;69870;51.460;8.842;2024-01-16T05:21:56;22.00;;;8.13;;
80541;SDS011;69870;51.460;8.842;2024-01-16T05:24:22;17.77;;;6.80;;
80541;SDS011;69870;51.460;8.842;2024-01-16T05:26:49;19.63;;;7.40;;
80541;SDS011;69870;51.460;8.842;2024-01-16T05:29:15;26.77;;;7.50;;
80541;SDS011;69870;51.460;8.842;2024-01-16T05:31:43;17.73;;;6.68;;
80541;SDS011;69870;51.460;8.842;2024-01-16T05:34:11;16.83;;;7.07;;
80541;SDS011;69870;51.460;8.842;2024-01-16T05:36:37;24.27;;;7.10;;
80541;SDS011;69870;51.460;8.842;2024-01-16T05:39:04;22.55;;;6.85;;
80541;SDS011;69870;51.460;8.842;2024-01-16T05:41:32;23.70;;;7.30;;
80541;SDS011;69870;51.460;8.842;2024-01-16T05:43:59;20.42;;;6.68;;
80541;SDS011;69870;51.460;8.842;2024-01-16T05:46:25;17.08;;;6.10;;
80541;SDS011;69870;51.460;8.842;2024-01-16T05:48:52;14.95;;;5.47;;
80541;SDS011;69870;51.460;8.842;2024-01-16T05:51:20;14.55;;;6.10;;
80541;SDS011;69870;51.460;8.842;2024-01-16T05:53:46;21.83;;;6.75;;
80541;SDS011;69870;51.460;8.842;2024-01-16T05:56:13;29.15;;;6.45;;
80541;SDS011;69870;51.460;8.842;2024-01-16T05:58:40;20.73;;;6.35;;
80541;SDS011;69870;51.460;8.842;2024-01-16T06:01:06;16.02;;;6.45;;
80541;SDS011;69870;51.460;8.842;2024-01-16T06:03:33;18.20;;;6.38;;
80541;SDS011;69870;51.460;8.842;2024-01-16T06:05:59;18.13;;;5.75;;
80541;SDS011;69870;51.460;8.842;2024-01-16T06:08:27;17.27;;;7.55;;
80541;SDS011;69870;51.460;8.842;2024-01-16T06:10:54;22.48;;;6.40;;
80541;SDS011;69870;51.460;8.842;2024-01-16T06:13:21;18.23;;;5.97;;
80541;SDS011;69870;51.460;8.842;2024-01-16T06:15:47;14.30;;;5.93;;
80541;SDS011;69870;51.460;8.842;2024-01-16T06:18:14;14.40;;;6.72;;
80541;SDS011;69870;51.460;8.842;2024-01-16T06:20:41;19.75;;;7.00;;
80541;SDS011;69870;51.460;8.842;2024-01-16T06:23:07;24.08;;;6.03;;
80541;SDS011;69870;51.460;8.842;2024-01-16T06:25:35;16.92;;;6.07;;
80541;SDS011;69870;51.460;8.842;2024-01-16T06:28:02;16.98;;;5.97;;
80541;SDS011;69870;51.460;8.842;2024-01-16T06:30:30;25.92;;;7.75;;
80541;SDS011;69870;51.460;8.842;2024-01-16T06:32:57;18.27;;;6.47;;
80541;SDS011;69870;51.460;8.842;2024-01-16T06:35:23;21.63;;;6.50;;
80541;SDS011;69870;51.460;8.842;2024-01-16T06:37:50;22.92;;;7.47;;
80541;SDS011;69870;51.460;8.842;2024-01-16T06:40:17;16.33;;;6.68;;
80541;SDS011;69870;51.460;8.842;2024-01-16T06:42:44;19.05;;;7.53;;
80541;SDS011;69870;51.460;8.842;2024-01-16T06:45:11;26.80;;;8.40;;
80541;SDS011;69870;51.460;8.842;2024-01-16T06:47:38;17.55;;;7.50;;
80541;SDS011;69870;51.460;8.842;2024-01-16T06:50:07;23.70;;;7.95;;
80541;SDS011;69870;51.460;8.842;2024-01-16T06:52:34;24.30;;;7.10;;
80541;SDS011;69870;51.460;8.842;2024-01-16T06:55:01;23.33;;;8.50;;
80541;SDS011;69870;51.460;8.842;2024-01-16T06:57:27;24.65;;;8.68;;
80541;SDS011;69870;51.460;8.842;2024-01-16T06:59:55;23.25;;;8.73;;
80541;SDS011;69870;51.460;8.842;2024-01-16T07:02:22;21.48;;;7.95;;
80541;SDS011;69870;51.460;8.842;2024-01-16T07:04:48;28.13;;;8.57;;
80541;SDS011;69870;51.460;8.842;2024-01-16T07:07:15;17.27;;;6.57;;
80541;SDS011;69870;51.460;8.842;2024-01-16T07:09:43;16.77;;;7.43;;
80541;SDS011;69870;51.460;8.842;2024-01-16T07:12:09;15.50;;;6.55;;
80541;SDS011;69870;51.460;8.842;2024-01-16T07:14:36;24.05;;;7.80;;
80541;SDS011;69870;51.460;8.842;2024-01-16T07:17:05;21.60;;;8.93;;
80541;SDS011;69870;51.460;8.842;2024-01-16T07:19:32;18.23;;;7.18;;
80541;SDS011;69870;51.460;8.842;2024-01-16T07:21:59;26.90;;;7.15;;
80541;SDS011;69870;51.460;8.842;2024-01-16T07:24:26;15.75;;;7.47;;
80541;SDS011;69870;51.460;8.842;2024-01-16T07:26:53;23.48;;;7.97;;
80541;SDS011;69870;51.460;8.842;2024-01-16T07:29:20;18.15;;;6.97;;
80541;SDS011;69870;51.460;8.842;2024-01-16T07:31:46;18.90;;;8.27;;
80541;SDS011;69870;51.460;8.842;2024-01-16T07:34:14;20.80;;;7.80;;
80541;SDS011;69870;51.460;8.842;2024-01-16T07:36:47;15.38;;;6.88;;
80541;SDS011;69870;51.460;8.842;2024-01-16T07:39:14;19.63;;;7.00;;
80541;SDS011;69870;51.460;8.842;2024-01-16T07:41:39;16.42;;;6.93;;
80541;SDS011;69870;51.460;8.842;2024-01-16T07:44:06;19.10;;;6.97;;
80541;SDS011;69870;51.460;8.842;2024-01-16T07:46:32;30.63;;;7.43;;
80541;SDS011;69870;51.460;8.842;2024-01-16T07:48:59;15.60;;;6.97;;
80541;SDS011;69870;51.460;8.842;2024-01-16T07:51:28;16.85;;;6.15;;
80541;SDS011;69870;51.460;8.842;2024-01-16T07:54:04;21.83;;;7.32;;
80541;SDS011;69870;51.460;8.842;2024-01-16T07:56:31;22.65;;;7.35;;
80541;SDS011;69870;51.460;8.842;2024-01-16T07:58:58;19.60;;;7.45;;
80541;SDS011;69870;51.460;8.842;2024-01-16T08:01:25;16.00;;;6.78;;
80541;SDS011;69870;51.460;8.842;2024-01-16T08:03:51;18.65;;;7.50;;
80541;SDS011;69870;51.460;8.842;2024-01-16T08:06:18;17.27;;;7.28;;
80541;SDS011;69870;51.460;8.842;2024-01-16T08:08:45;16.75;;;7.15;;
80541;SDS011;69870;51.460;8.842;2024-01-16T08:11:12;23.83;;;7.82;;
80541;SDS011;69870;51.460;8.842;2024-01-16T08:13:39;18.85;;;8.52;;
80541;SDS011;69870;51.460;8.842;2024-01-16T08:16:05;24.17;;;8.70;;
80541;SDS011;69870;51.460;8.842;2024-01-16T08:18:32;25.33;;;8.60;;
80541;SDS011;69870;51.460;8.842;2024-01-16T08:20:58;21.20;;;8.13;;
80541;SDS011;69870;51.460;8.842;2024-01-16T08:23:25;20.35;;;8.98;;
80541;SDS011;69870;51.460;8.842;2024-01-16T08:25:53;22.45;;;9.18;;
80541;SDS011;69870;51.460;8.842;2024-01-16T08:28:19;26.10;;;8.88;;
80541;SDS011;69870;51.460;8.842;2024-01-16T08:30:46;26.92;;;8.73;;
80541;SDS011;69870;51.460;8.842;2024-01-16T08:33:12;23.40;;;7.75;;
80541;SDS011;69870;51.460;8.842;2024-01-16T08:35:39;24.38;;;8.75;;
80541;SDS011;69870;51.460;8.842;2024-01-16T08:38:05;23.80;;;9.48;;
80541;SDS011;69870;51.460;8.842;2024-01-16T08:40:32;22.80;;;8.02;;
80541;SDS011;69870;51.460;8.842;2024-01-16T08:43:00;16.98;;;7.60;;
80541;SDS011;69870;51.460;8.842;2024-01-16T08:45:26;16.80;;;6.88;;
80541;SDS011;69870;51.460;8.842;2024-01-16T08:47:53;18.27;;;7.43;;
80541;SDS011;69870;51.460;8.842;2024-01-16T08:50:19;15.68;;;7.88;;
80541;SDS011;69870;51.460;8.842;2024-01-16T08:52:46;15.52;;;7.07;;
80541;SDS011;69870;51.460;8.842;2024-01-16T08:55:13;13.63;;;6.65;;
80541;SDS011;69870;51.460;8.842;2024-01-16T08:57:40;19.80;;;6.00;;
80541;SDS011;69870;51.460;8.842;2024-01-16T09:00:08;12.50;;;6.30;;
80541;SDS011;69870;51.460;8.842;2024-01-16T09:02:35;15.52;;;6.88;;
80541;SDS011;69870;51.460;8.842;2024-01-16T09:05:02;16.60;;;6.72;;
80541;SDS011;69870;51.460;8.842;2024-01-16T09:07:30;20.90;;;6.80;;
80541;SDS011;69870;51.460;8.842;2024-01-16T09:09:56;19.67;;;6.97;;
80541;SDS011;69870;51.460;8.842;2024-01-16T09:12:23;21.60;;;6.38;;
80541;SDS011;69870;51.460;8.842;2024-01-16T09:14:51;13.60;;;5.35;;
80541;SDS011;69870;51.460;8.842;2024-01-16T09:17:19;18.70;;;6.20;;
80541;SDS011;69870;51.460;8.842;2024-01-16T09:19:46;14.38;;;5.28;;
80541;SDS011;69870;51.460;8.842;2024-01-16T09:22:13;12.20;;;5.97;;
80541;SDS011;69870;51.460;8.842;2024-01-16T09:24:41;16.05;;;5.20;;
80541;SDS011;69870;51.460;8.842;2024-01-16T09:27:07;17.17;;;5.07;;
80541;SDS011;69870;51.460;8.842;2024-01-16T09:29:35;11.57;;;5.22;;
80541;SDS011;69870;51.460;8.842;2024-01-16T09:32:01;12.15;;;5.57;;
80541;SDS011;69870;51.460;8.842;2024-01-16T09:34:29;15.80;;;5.35;;
80541;SDS011;69870;51.460;8.842;2024-01-16T09:36:56;17.10;;;4.93;;
80541;SDS011;69870;51.460;8.842;2024-01-16T09:39:24;15.18;;;5.47;;
80541;SDS011;69870;51.460;8.842;2024-01-16T09:41:50;17.65;;;5.43;;
80541;SDS011;69870;51.460;8.842;2024-01-16T09:44:17;14.70;;;5.78;;
80541;SDS011;69870;51.460;8.842;2024-01-16T09:46:44;21.35;;;6.93;;
80541;SDS011;69870;51.460;8.842;2024-01-16T09:49:12;13.95;;;6.35;;
80541;SDS011;69870;51.460;8.842;2024-01-16T09:51:43;24.27;;;6.68;;
80541;SDS011;69870;51.460;8.842;2024-01-16T09:54:10;17.08;;;5.97;;
80541;SDS011;69870;51.460;8.842;2024-01-16T09:56:39;19.58;;;6.22;;
80541;SDS011;69870;51.460;8.842;2024-01-16T09:59:07;25.67;;;6.97;;
80541;SDS011;69870;51.460;8.842;2024-01-16T10:01:35;17.08;;;5.88;;
80541;SDS011;69870;51.460;8.842;2024-01-16T10:04:04;26.88;;;6.70;;
80541;SDS011;69870;51.460;8.842;2024-01-16T10:06:30;21.95;;;6.10;;
80541;SDS011;69870;51.460;8.842;2024-01-16T10:09:01;19.35;;;6.13;;
80541;SDS011;69870;51.460;8.842;2024-01-16T10:11:27;22.55;;;7.03;;
80541;SDS011;69870;51.460;8.842;2024-01-16T10:13:55;21.70;;;6.78;;
80541;SDS011;69870;51.460;8.842;2024-01-16T10:16:22;16.63;;;5.95;;
80541;SDS011;69870;51.460;8.842;2024-01-16T10:18:49;18.50;;;6.35;;
80541;SDS011;69870;51.460;8.842;2024-01-16T10:21:22;14.90;;;6.05;;
80541;SDS011;69870;51.460;8.842;2024-01-16T10:23:50;22.50;;;6.80;;
80541;SDS011;69870;51.460;8.842;2024-01-16T10:26:18;17.42;;;6.82;;
80541;SDS011;69870;51.460;8.842;2024-01-16T10:28:47;20.02;;;6.35;;
80541;SDS011;69870;51.460;8.842;2024-01-16T10:31:13;16.65;;;6.85;;
80541;SDS011;69870;51.460;8.842;2024-01-16T10:33:40;17.73;;;7.00;;
80541;SDS011;69870;51.460;8.842;2024-01-16T10:36:10;29.75;;;6.95;;
80541;SDS011;69870;51.460;8.842;2024-01-16T10:38:38;21.45;;;5.90;;
80541;SDS011;69870;51.460;8.842;2024-01-16T10:41:06;17.75;;;7.47;;
80541;SDS011;69870;51.460;8.842;2024-01-16T10:43:36;22.23;;;5.65;;
80541;SDS011;69870;51.460;8.842;2024-01-16T10:46:07;27.42;;;6.63;;
80541;SDS011;69870;51.460;8.842;2024-01-16T10:48:35;19.52;;;5.78;;
80541;SDS011;69870;51.460;8.842;2024-01-16T10:51:02;19.10;;;5.05;;
80541;SDS011;69870;51.460;8.842;2024-01-16T10:53:32;19.98;;;6.40;;
80541;SDS011;69870;51.460;8.842;2024-01-16T10:56:00;11.48;;;5.80;;
80541;SDS011;69870;51.460;8.842;2024-01-16T10:58:28;18.67;;;6.00;;
80541;SDS011;69870;51.460;8.842;2024-01-16T11:01:00;17.83;;;5.45;;
80541;SDS011;69870;51.460;8.842;2024-01-16T11:03:29;18.45;;;6.30;;
80541;SDS011;69870;51.460;8.842;2024-01-16T11:06:02;22.92;;;5.60;;
80541;SDS011;69870;51.460;8.842;2024-01-16T11:08:33;20.50;;;6.22;;
80541;SDS011;69870;51.460;8.842;2024-01-16T11:11:02;26.02;;;6.10;;
80541;SDS011;69870;51.460;8.842;2024-01-16T11:13:30;18.50;;;5.63;;
80541;SDS011;69870;51.460;8.842;2024-01-16T11:16:00;20.30;;;5.47;;
80541;SDS011;69870;51.460;8.842;2024-01-16T11:18:28;11.13;;;4.95;;
80541;SDS011;69870;51.460;8.842;2024-01-16T11:20:57;23.40;;;5.90;;
80541;SDS011;69870;51.460;8.842;2024-01-16T11:23:24;18.35;;;5.10;;
80541;SDS011;69870;51.460;8.842;2024-01-16T11:25:51;21.17;;;5.88;;
80541;SDS011;69870;51.460;8.842;2024-01-16T11:28:17;17.52;;;5.55;;
80541;SDS011;69870;51.460;8.842;2024-01-16T11:30:45;12.35;;;5.28;;
80541;SDS011;69870;51.460;8.842;2024-01-16T11:39:19;15.07;;;4.30;;
80541;SDS011;69870;51.460;8.842;2024-01-16T11:41:53;17.55;;;3.88;;
80541;SDS011;69870;51.460;8.842;2024-01-16T11:44:36;13.23;;;4.40;;
80541;SDS011;69870;51.460;8.842;2024-01-16T11:47:05;13.80;;;3.88;;
80541;SDS011;69870;51.460;8.842;2024-01-16T11:49:34;22.25;;;4.70;;
80541;SDS011;69870;51.460;8.842;2024-01-16T11:52:00;18.10;;;4.25;;
80541;SDS011;69870;51.460;8.842;2024-01-16T11:54:27;13.32;;;4.57;;
80541;SDS011;69870;51.460;8.842;2024-01-16T11:57:12;26.75;;;8.35;;
80541;SDS011;69870;51.460;8.842;2024-01-16T11:59:57;16.92;;;6.07;;
80541;SDS011;69870;51.460;8.842;2024-01-16T12:02:28;13.82;;;4.97;;
80541;SDS011;69870;51.460;8.842;2024-01-16T12:05:01;16.08;;;4.88;;
80541;SDS011;69870;51.460;8.842;2024-01-16T12:07:41;17.05;;;4.60;;
80541;SDS011;69870;51.460;8.842;2024-01-16T12:10:08;19.23;;;4.78;;
80541;SDS011;69870;51.460;8.842;2024-01-16T12:12:35;15.32;;;4.50;;
80541;SDS011;69870;51.460;8.842;2024-01-16T12:15:02;15.00;;;5.18;;
80541;SDS011;69870;51.460;8.842;2024-01-16T12:17:29;14.68;;;5.57;;
80541;SDS011;69870;51.460;8.842;2024-01-16T12:19:56;28.77;;;7.10;;
80541;SDS011;69870;51.460;8.842;2024-01-16T12:22:24;14.65;;;4.97;;
80541;SDS011;69870;51.460;8.842;2024-01-16T12:24:55;22.15;;;5.18;;
80541;SDS011;69870;51.460;8.842;2024-01-16T12:27:23;19.73;;;5.38;;
80541;SDS011;69870;51.460;8.842;2024-01-16T12:29:58;9.32;;;4.53;;
80541;SDS011;69870;51.460;8.842;2024-01-16T12:32:32;16.88;;;5.28;;
80541;SDS011;69870;51.460;8.842;2024-01-16T12:34:59;11.15;;;5.05;;
80541;SDS011;69870;51.460;8.842;2024-01-16T12:37:26;18.27;;;4.75;;
80541;SDS011;69870;51.460;8.842;2024-01-16T12:39:53;14.05;;;4.07;;
80541;SDS011;69870;51.460;8.842;2024-01-16T12:42:22;14.68;;;4.80;;
80541;SDS011;69870;51.460;8.842;2024-01-16T12:44:50;20.80;;;5.30;;
80541;SDS011;69870;51.460;8.842;2024-01-16T12:47:18;14.50;;;4.63;;
80541;SDS011;69870;51.460;8.842;2024-01-16T12:49:46;13.73;;;4.57;;
80541;SDS011;69870;51.460;8.842;2024-01-16T12:52:17;14.10;;;5.30;;
80541;SDS011;69870;51.460;8.842;2024-01-16T12:54:46;17.27;;;4.90;;
80541;SDS011;69870;51.460;8.842;2024-01-16T12:57:17;16.10;;;4.03;;
80541;SDS011;69870;51.460;8.842;2024-01-16T12:59:45;15.23;;;4.00;;
80541;SDS011;69870;51.460;8.842;2024-01-16T13:02:19;17.17;;;4.63;;
80541;SDS011;69870;51.460;8.842;2024-01-16T13:04:47;17.33;;;4.40;;
80541;SDS011;69870;51.460;8.842;2024-01-16T13:07:15;17.05;;;4.65;;
80541;SDS011;69870;51.460;8.842;2024-01-16T13:09:43;20.13;;;4.25;;
80541;SDS011;69870;51.460;8.842;2024-01-16T13:12:11;10.52;;;3.17;;
80541;SDS011;69870;51.460;8.842;2024-01-16T13:14:45;11.02;;;3.72;;
80541;SDS011;69870;51.460;8.842;2024-01-16T13:17:12;15.20;;;3.20;;
80541;SDS011;69870;51.460;8.842;2024-01-16T13:19:39;14.95;;;3.42;;
80541;SDS011;69870;51.460;8.842;2024-01-16T13:22:07;12.95;;;2.67;;
80541;SDS011;69870;51.460;8.842;2024-01-16T13:24:33;16.85;;;4.00;;
80541;SDS011;69870;51.460;8.842;2024-01-16T13:27:01;15.73;;;3.17;;
80541;SDS011;69870;51.460;8.842;2024-01-16T13:29:29;13.43;;;3.75;;
80541;SDS011;69870;51.460;8.842;2024-01-16T13:32:00;9.75;;;2.60;;
80541;SDS011;69870;51.460;8.842;2024-01-16T13:34:27;11.65;;;3.10;;
80541;SDS011;69870;51.460;8.842;2024-01-16T13:36:54;12.82;;;3.15;;
80541;SDS011;69870;51.460;8.842;2024-01-16T13:39:25;8.30;;;2.47;;
80541;SDS011;69870;51.460;8.842;2024-01-16T13:41:51;8.15;;;2.97;;
80541;SDS011;69870;51.460;8.842;2024-01-16T13:44:18;14.50;;;4.30;;
80541;SDS011;69870;51.460;8.842;2024-01-16T13:46:46;20.38;;;4.60;;
80541;SDS011;69870;51.460;8.842;2024-01-16T13:49:12;8.73;;;2.90;;
80541;SDS011;69870;51.460;8.842;2024-01-16T13:51:39;14.80;;;3.38;;
80541;SDS011;69870;51.460;8.842;2024-01-16T13:54:05;11.25;;;3.25;;
80541;SDS011;69870;51.460;8.842;2024-01-16T13:56:32;9.95;;;3.13;;
80541;SDS011;69870;51.460;8.842;2024-01-16T13:58:58;11.32;;;3.10;;
80541;SDS011;69870;51.460;8.842;2024-01-16T14:01:27;18.52;;;2.55;;
80541;SDS011;69870;51.460;8.842;2024-01-16T14:03:55;12.70;;;2.67;;
80541;SDS011;69870;51.460;8.842;2024-01-16T14:06:21;12.50;;;2.72;;
80541;SDS011;69870;51.460;8.842;2024-01-16T14:08:48;11.52;;;2.60;;
80541;SDS011;69870;51.460;8.842;2024-01-16T14:11:15;15.57;;;2.65;;
80541;SDS011;69870;51.460;8.842;2024-01-16T14:13:41;9.43;;;2.42;;
80541;SDS011;69870;51.460;8.842;2024-01-16T14:16:09;14.82;;;2.97;;
80541;SDS011;69870;51.460;8.842;2024-01-16T14:18:35;11.88;;;2.40;;
80541;SDS011;69870;51.460;8.842;2024-01-16T14:21:04;15.32;;;2.53;;
80541;SDS011;69870;51.460;8.842;2024-01-16T14:23:30;9.10;;;3.25;;
80541;SDS011;69870;51.460;8.842;2024-01-16T14:25:57;7.95;;;2.38;;
80541;SDS011;69870;51.460;8.842;2024-01-16T14:28:24;12.55;;;2.33;;
80541;SDS011;69870;51.460;8.842;2024-01-16T14:30:52;11.90;;;2.53;;
80541;SDS011;69870;51.460;8.842;2024-01-16T14:33:19;8.45;;;2.17;;
80541;SDS011;69870;51.460;8.842;2024-01-16T14:35:45;13.90;;;2.70;;
80541;SDS011;69870;51.460;8.842;2024-01-16T14:38:13;10.30;;;2.00;;
80541;SDS011;69870;51.460;8.842;2024-01-16T14:40:45;7.82;;;2.13;;
80541;SDS011;69870;51.460;8.842;2024-01-16T14:43:14;9.02;;;2.50;;